Time;durP1;ratioP1;P1;durP2;ratioP2;P2;SDS_P1;SDS_P2;PMS_P1;PMS_P2;Temp;Humidity;BMP_temperature;BMP_pressure;BME280_temperature;BME280_humidity;BME280_pressure;Samples;Min_cycle;Max_cycle;Signal;HPM_P1;HPM_P2
2021/06/30 00:02:22;;;;;;;23.50;13.60;;;18.40;70.10;;;;;;5079781;28;20061;-72
2021/06/30 00:04:48;;;;;;;23.98;13.77;;;18.50;70.00;;;;;;5079595;28;20028;-72
2021/06/30 00:07:14;;;;;;;25.08;14.57;;;18.50;70.20;;;;;;5080065;28;20036;-72
2021/06/30 00:09:40;;;;;;;23.73;14.52;;;18.40;70.30;;;;;;5072740;28;20556;-72
2021/06/30 00:12:06;;;;;;;26.73;15.25;;;18.50;70.10;;;;;;5080016;28;20100;-72
2021/06/30 00:14:33;;;;;;;27.48;16.05;;;18.40;70.10;;;;;;5079836;28;20029;-72
2021/06/30 00:16:59;;;;;;;30.17;16.40;;;18.40;70.60;;;;;;5079879;28;20052;-72
2021/06/30 00:19:27;;;;;;;32.78;16.98;;;18.40;70.40;;;;;;5077540;28;20043;-72
2021/06/30 00:21:54;;;;;;;37.35;18.02;;;18.50;73.00;;;;;;5079468;28;20082;-72
2021/06/30 00:24:20;;;;;;;36.10;17.30;;;18.40;73.60;;;;;;5078961;28;20406;-72
2021/06/30 00:26:46;;;;;;;41.22;19.40;;;18.30;73.20;;;;;;5079335;28;20047;-72
2021/06/30 00:29:11;;;;;;;39.60;18.95;;;18.30;73.30;;;;;;5078975;28;20032;-72
2021/06/30 00:31:37;;;;;;;36.75;18.08;;;18.30;72.60;;;;;;5079105;28;20480;-72
2021/06/30 00:34:04;;;;;;;41.60;20.13;;;18.20;73.00;;;;;;5079058;28;20438;-72
2021/06/30 00:36:35;;;;;;;41.78;19.63;;;18.20;74.30;;;;;;5079418;28;20024;-72
2021/06/30 00:39:05;;;;;;;39.05;18.70;;;18.20;72.80;;;;;;5073533;28;20033;-72
2021/06/30 00:41:32;;;;;;;39.63;20.33;;;18.20;72.00;;;;;;5077726;28;20027;-72
2021/06/30 00:43:58;;;;;;;40.53;19.42;;;18.20;72.00;;;;;;5078958;28;20037;-72
2021/06/30 00:46:29;;;;;;;46.97;23.17;;;18.20;71.70;;;;;;5078914;28;20052;-72
2021/06/30 00:48:55;;;;;;;41.67;19.88;;;18.20;73.00;;;;;;5078698;28;20031;-72
2021/06/30 00:51:22;;;;;;;46.30;22.25;;;18.20;72.00;;;;;;5078779;28;20020;-72
2021/06/30 00:53:48;;;;;;;42.08;21.25;;;18.20;72.00;;;;;;5078769;28;20033;-72
2021/06/30 00:56:14;;;;;;;42.08;20.67;;;18.20;71.70;;;;;;5078711;28;20021;-72
2021/06/30 00:58:41;;;;;;;40.95;19.80;;;18.20;71.90;;;;;;5078833;28;20489;-72
2021/06/30 01:01:07;;;;;;;39.60;19.27;;;18.20;72.90;;;;;;5079209;28;20109;-72
2021/06/30 01:03:34;;;;;;;37.78;19.65;;;18.20;72.00;;;;;;5078933;28;20029;-72
2021/06/30 01:05:59;;;;;;;39.50;20.63;;;18.20;73.50;;;;;;5077730;28;20036;-72
2021/06/30 01:08:27;;;;;;;38.50;20.27;;;18.20;72.90;;;;;;5078739;28;20471;-71
2021/06/30 01:10:53;;;;;;;36.47;20.20;;;18.20;72.20;;;;;;5078522;28;20032;-72
2021/06/30 01:13:19;;;;;;;37.70;20.92;;;18.20;72.30;;;;;;5077679;28;20029;-72
2021/06/30 01:15:55;;;;;;;34.65;18.38;;;18.20;72.30;;;;;;5078635;28;20073;-71
2021/06/30 01:18:23;;;;;;;37.28;18.83;;;18.20;71.90;;;;;;5075101;28;20388;-72
2021/06/30 01:20:49;;;;;;;36.08;18.27;;;18.20;72.30;;;;;;5076592;28;20028;-72
2021/06/30 01:23:15;;;;;;;36.00;18.85;;;18.20;72.80;;;;;;5077447;28;20081;-72
2021/06/30 01:25:41;;;;;;;38.70;20.02;;;18.20;72.60;;;;;;5078446;28;20123;-72
2021/06/30 01:28:07;;;;;;;39.03;19.75;;;18.20;72.80;;;;;;5077778;28;20036;-71
2021/06/30 01:30:33;;;;;;;36.83;20.13;;;18.20;72.20;;;;;;5077531;28;20572;-72
2021/06/30 01:32:59;;;;;;;35.15;20.73;;;18.20;71.90;;;;;;5076941;28;20033;-71
2021/06/30 01:35:26;;;;;;;42.25;21.73;;;18.20;71.90;;;;;;5077144;28;20487;-71
2021/06/30 01:37:53;;;;;;;44.58;22.13;;;18.20;72.90;;;;;;5076288;28;20086;-71
2021/06/30 01:40:21;;;;;;;39.90;21.05;;;18.10;72.80;;;;;;5076011;28;20437;-72
2021/06/30 01:42:49;;;;;;;40.38;20.70;;;18.20;73.10;;;;;;5077833;28;20161;-71
2021/06/30 01:45:15;;;;;;;41.55;21.25;;;18.10;72.80;;;;;;5077015;28;20029;-71
2021/06/30 01:47:42;;;;;;;39.88;21.33;;;18.10;72.80;;;;;;5078323;28;20020;-72
2021/06/30 01:50:09;;;;;;;41.08;22.83;;;18.10;72.60;;;;;;5076642;28;20028;-72
2021/06/30 01:52:35;;;;;;;36.42;19.88;;;18.10;72.30;;;;;;5077902;28;20089;-72
2021/06/30 01:55:03;;;;;;;38.47;21.10;;;18.10;72.60;;;;;;5077737;28;20028;-72
2021/06/30 01:57:29;;;;;;;42.65;23.05;;;18.10;72.00;;;;;;5078037;28;20103;-72
2021/06/30 01:59:55;;;;;;;40.53;20.98;;;18.10;73.20;;;;;;5077698;28;20052;-72
2021/06/30 02:02:24;;;;;;;37.70;20.23;;;18.10;72.30;;;;;;5070715;28;20107;-72
2021/06/30 02:05:12;;;;;;;37.35;19.58;;;18.10;72.40;;;;;;5077089;28;20033;-71
2021/06/30 02:07:38;;;;;;;37.88;21.20;;;18.10;72.40;;;;;;5077753;28;20482;-72
2021/06/30 02:10:07;;;;;;;37.47;20.42;;;18.10;72.00;;;;;;5077331;28;20391;-72
2021/06/30 02:12:34;;;;;;;39.05;20.90;;;18.10;72.40;;;;;;5077609;28;20456;-72
2021/06/30 02:15:00;;;;;;;36.30;20.25;;;18.10;73.50;;;;;;5076903;28;20029;-72
2021/06/30 02:17:26;;;;;;;38.45;20.65;;;18.10;73.70;;;;;;5074723;28;20052;-72
2021/06/30 02:19:52;;;;;;;37.85;20.88;;;18.10;72.80;;;;;;5065804;28;20096;-72
2021/06/30 02:22:18;;;;;;;38.08;19.77;;;18.00;72.80;;;;;;5074973;28;20151;-71
2021/06/30 02:24:44;;;;;;;36.47;20.80;;;18.00;72.90;;;;;;5076845;28;20025;-71
2021/06/30 02:27:11;;;;;;;35.63;19.30;;;18.10;72.60;;;;;;5077044;28;20025;-71
2021/06/30 02:29:37;;;;;;;39.53;20.58;;;18.00;72.30;;;;;;5076563;28;20029;-71
2021/06/30 02:32:04;;;;;;;42.13;21.60;;;18.10;72.70;;;;;;5076172;28;20028;-72
2021/06/30 02:34:30;;;;;;;40.67;22.52;;;18.00;72.50;;;;;;5076702;28;20082;-72
2021/06/30 02:36:56;;;;;;;47.95;25.15;;;18.00;72.80;;;;;;5077046;28;20024;-71
2021/06/30 02:39:21;;;;;;;43.53;22.88;;;18.10;72.90;;;;;;5077218;28;20032;-71
2021/06/30 02:41:47;;;;;;;48.90;25.75;;;18.00;72.80;;;;;;5076811;28;20032;-71
2021/06/30 02:44:13;;;;;;;43.45;23.05;;;18.00;72.40;;;;;;5069790;28;20132;-72
2021/06/30 02:46:39;;;;;;;50.00;24.65;;;18.00;72.70;;;;;;5077224;28;20116;-71
2021/06/30 02:49:05;;;;;;;53.75;26.17;;;18.00;73.80;;;;;;5076103;28;20555;-71
2021/06/30 02:51:31;;;;;;;54.63;25.92;;;18.00;73.00;;;;;;5076375;28;20033;-71
2021/06/30 02:53:58;;;;;;;57.55;28.50;;;18.00;72.90;;;;;;5077134;28;20100;-72
2021/06/30 02:56:24;;;;;;;52.97;26.42;;;18.10;73.10;;;;;;5076237;28;20020;-72
2021/06/30 02:58:50;;;;;;;56.50;28.25;;;18.00;73.10;;;;;;5076941;28;20025;-71
2021/06/30 03:01:17;;;;;;;54.70;26.85;;;18.00;72.70;;;;;;5077158;28;20025;-72
2021/06/30 03:03:44;;;;;;;55.97;26.50;;;18.00;73.40;;;;;;5075145;28;20560;-71
2021/06/30 03:06:10;;;;;;;57.25;28.17;;;18.00;72.80;;;;;;5079415;28;20089;-72
2021/06/30 03:08:36;;;;;;;59.50;28.13;;;18.00;73.90;;;;;;5080560;28;20056;-72
2021/06/30 03:11:02;;;;;;;51.67;26.38;;;18.00;73.00;;;;;;5080464;28;20487;-71
2021/06/30 03:13:28;;;;;;;48.65;25.48;;;18.00;73.10;;;;;;5081155;28;20024;-72
2021/06/30 03:15:54;;;;;;;49.80;26.90;;;18.00;72.80;;;;;;5080603;28;20025;-71
2021/06/30 03:18:19;;;;;;;51.75;26.02;;;18.00;73.30;;;;;;5070254;28;20503;-72
2021/06/30 03:20:46;;;;;;;55.40;27.13;;;18.00;72.70;;;;;;5076158;28;20043;-71
2021/06/30 03:23:13;;;;;;;52.42;25.35;;;18.00;73.20;;;;;;5080678;28;20094;-71
2021/06/30 03:25:39;;;;;;;57.97;26.55;;;18.00;73.40;;;;;;5080815;28;20227;-71
2021/06/30 03:28:06;;;;;;;55.67;28.10;;;18.00;72.80;;;;;;5079107;28;20041;-71
2021/06/30 03:30:34;;;;;;;50.75;25.85;;;18.00;73.10;;;;;;5079846;28;20032;-71
2021/06/30 03:33:01;;;;;;;54.38;26.75;;;17.90;72.80;;;;;;5080241;28;20028;-72
2021/06/30 03:35:27;;;;;;;47.47;24.42;;;18.00;72.50;;;;;;5080390;28;20423;-72
2021/06/30 03:37:54;;;;;;;54.15;25.80;;;18.00;73.00;;;;;;5080502;28;20048;-72
2021/06/30 03:40:19;;;;;;;52.05;24.75;;;18.00;72.60;;;;;;5080063;28;20403;-71
2021/06/30 03:42:45;;;;;;;53.05;26.10;;;18.00;72.90;;;;;;5080152;28;20032;-71
2021/06/30 03:45:11;;;;;;;53.20;27.40;;;18.00;72.80;;;;;;5080112;28;20089;-72
2021/06/30 03:47:37;;;;;;;51.92;25.27;;;18.00;73.20;;;;;;5079492;28;20525;-72
2021/06/30 03:50:04;;;;;;;50.83;25.67;;;17.90;73.70;;;;;;5079469;28;20116;-72
2021/06/30 03:52:30;;;;;;;54.10;27.00;;;18.00;73.40;;;;;;5078058;28;20550;-71
2021/06/30 03:54:56;;;;;;;51.70;25.38;;;17.90;72.80;;;;;;5079823;28;20070;-71
2021/06/30 03:57:22;;;;;;;49.60;25.85;;;17.90;72.80;;;;;;5079495;28;20063;-72
2021/06/30 03:59:48;;;;;;;43.15;23.55;;;17.90;73.10;;;;;;5079788;28;20028;-71
2021/06/30 04:02:14;;;;;;;53.92;24.48;;;17.90;72.80;;;;;;5079317;28;20029;-72
2021/06/30 04:04:40;;;;;;;51.10;24.42;;;17.90;72.80;;;;;;5079234;28;20028;-71
2021/06/30 04:07:05;;;;;;;44.40;24.02;;;17.90;72.40;;;;;;5079445;28;20029;-71
2021/06/30 04:09:31;;;;;;;47.80;24.70;;;17.90;72.40;;;;;;5079535;28;20132;-71
2021/06/30 04:11:57;;;;;;;45.60;24.70;;;17.90;72.70;;;;;;5079980;28;20033;-72
2021/06/30 04:14:23;;;;;;;43.58;23.98;;;17.90;72.30;;;;;;5080033;28;20032;-72
2021/06/30 04:16:49;;;;;;;43.90;23.63;;;17.90;72.90;;;;;;5079266;28;20048;-72
2021/06/30 04:19:15;;;;;;;41.08;22.52;;;17.90;72.60;;;;;;5069659;28;20032;-71
2021/06/30 04:21:41;;;;;;;43.60;23.13;;;17.90;72.80;;;;;;5079090;28;20078;-72
2021/06/30 04:24:07;;;;;;;40.13;22.35;;;17.90;73.20;;;;;;5079320;28;20107;-71
2021/06/30 04:26:34;;;;;;;37.42;19.60;;;17.90;73.20;;;;;;5078778;28;20056;-72
2021/06/30 04:29:00;;;;;;;38.70;22.23;;;17.90;73.00;;;;;;5079072;28;20030;-71
2021/06/30 04:31:26;;;;;;;40.25;20.88;;;17.90;72.40;;;;;;5079049;28;20028;-72
2021/06/30 04:33:52;;;;;;;42.63;22.52;;;17.90;72.40;;;;;;5079212;28;20035;-72
2021/06/30 04:36:18;;;;;;;40.50;22.80;;;17.90;72.90;;;;;;5079447;28;20090;-72
2021/06/30 04:38:44;;;;;;;46.00;23.45;;;17.80;73.40;;;;;;5079056;28;20024;-71
2021/06/30 04:41:11;;;;;;;45.45;22.80;;;17.80;73.60;;;;;;5079056;28;20070;-72
2021/06/30 04:43:38;;;;;;;48.28;25.30;;;17.80;74.20;;;;;;5078932;28;20375;-71
2021/06/30 04:46:04;;;;;;;42.35;22.77;;;17.80;74.60;;;;;;5079282;28;20039;-72
2021/06/30 04:48:30;;;;;;;41.83;21.63;;;17.70;75.00;;;;;;5078735;28;20021;-72
2021/06/30 04:50:55;;;;;;;41.35;22.70;;;17.80;75.00;;;;;;5076351;28;20024;-71
2021/06/30 04:53:21;;;;;;;45.53;23.42;;;17.70;74.90;;;;;;5077791;28;20024;-71
2021/06/30 04:55:48;;;;;;;42.38;22.60;;;17.70;75.00;;;;;;5078072;28;20834;-71
2021/06/30 04:58:14;;;;;;;41.45;23.17;;;17.70;75.00;;;;;;5078684;28;20052;-72
2021/06/30 05:00:39;;;;;;;37.97;21.40;;;17.70;74.20;;;;;;5078806;28;20032;-71
2021/06/30 05:03:05;;;;;;;39.60;21.80;;;17.70;74.00;;;;;;5078539;28;20043;-72
2021/06/30 05:05:31;;;;;;;37.15;20.27;;;17.70;74.30;;;;;;5078574;28;20021;-71
2021/06/30 05:07:57;;;;;;;39.60;21.67;;;17.70;73.70;;;;;;5078485;28;20587;-71
2021/06/30 05:10:24;;;;;;;38.15;21.52;;;17.70;73.90;;;;;;5077631;28;20044;-72
2021/06/30 05:12:50;;;;;;;43.60;22.90;;;17.80;74.30;;;;;;5078496;28;20075;-72
2021/06/30 05:15:15;;;;;;;44.88;23.58;;;17.80;74.20;;;;;;5079035;28;20025;-72
2021/06/30 05:17:41;;;;;;;42.60;22.38;;;17.70;73.90;;;;;;5077378;28;20522;-72
2021/06/30 05:20:08;;;;;;;42.10;21.33;;;17.80;74.00;;;;;;5072822;28;20515;-71
2021/06/30 05:22:33;;;;;;;44.30;24.35;;;17.80;73.70;;;;;;5077846;28;20030;-72
2021/06/30 05:24:59;;;;;;;43.63;22.48;;;17.80;74.40;;;;;;5078473;28;20020;-75
2021/06/30 05:27:25;;;;;;;43.38;22.42;;;17.80;74.40;;;;;;5077212;28;20130;-73
2021/06/30 05:29:51;;;;;;;42.65;22.98;;;17.80;74.70;;;;;;5077857;28;20066;-73
2021/06/30 05:32:17;;;;;;;49.30;25.98;;;17.80;76.30;;;;;;5077315;28;20080;-72
2021/06/30 05:34:42;;;;;;;47.60;25.10;;;17.90;75.40;;;;;;5078477;28;20425;-74
2021/06/30 05:37:08;;;;;;;49.03;25.38;;;17.90;75.10;;;;;;5077738;28;20024;-75
2021/06/30 05:39:34;;;;;;;46.88;24.63;;;17.90;74.90;;;;;;5078909;28;20165;-85
2021/06/30 05:42:00;;;;;;;48.92;24.13;;;17.90;75.40;;;;;;5078089;28;20036;-79
2021/06/30 05:44:26;;;;;;;44.50;23.58;;;17.90;75.10;;;;;;5077400;28;20028;-84
2021/06/30 05:46:51;;;;;;;43.72;23.27;;;17.90;74.90;;;;;;5077665;28;20103;-83
2021/06/30 05:49:17;;;;;;;41.90;24.02;;;18.00;75.00;;;;;;5077631;28;20032;-86
2021/06/30 05:51:43;;;;;;;46.88;24.13;;;18.00;75.70;;;;;;5077935;28;20025;-76
2021/06/30 05:54:12;;;;;;;44.10;22.88;;;18.00;75.10;;;;;;5077243;28;20122;-76
2021/06/30 05:56:39;;;;;;;47.05;24.55;;;18.00;75.10;;;;;;5077975;28;20027;-82
2021/06/30 05:59:05;;;;;;;44.42;23.65;;;18.00;75.30;;;;;;5077469;28;20025;-82
2021/06/30 06:01:32;;;;;;;49.53;25.70;;;18.00;75.50;;;;;;5077352;28;20501;-81
2021/06/30 06:03:58;;;;;;;40.95;23.02;;;18.10;75.60;;;;;;5077284;28;20036;-82
2021/06/30 06:06:24;;;;;;;47.05;24.73;;;18.10;75.60;;;;;;5076960;28;20394;-82
2021/06/30 06:08:50;;;;;;;43.58;24.55;;;18.10;75.80;;;;;;5075850;28;20103;-82
2021/06/30 06:11:16;;;;;;;38.13;21.33;;;18.10;75.60;;;;;;5077717;28;20495;-82
2021/06/30 06:13:45;;;;;;;41.38;21.95;;;18.20;75.60;;;;;;5077139;28;20067;-82
2021/06/30 06:16:16;;;;;;;39.58;21.75;;;18.20;75.40;;;;;;5076551;28;20447;-82
2021/06/30 06:18:42;;;;;;;40.00;21.67;;;18.20;75.50;;;;;;5071591;28;20045;-82
2021/06/30 06:21:08;;;;;;;40.97;22.70;;;18.20;75.60;;;;;;5076598;28;20028;-82
2021/06/30 06:23:34;;;;;;;42.88;23.88;;;18.20;75.60;;;;;;5077643;28;20447;-82
2021/06/30 06:26:12;;;;;;;43.70;23.17;;;18.20;75.90;;;;;;5076621;28;20024;-82
2021/06/30 06:28:39;;;;;;;43.55;23.52;;;18.30;75.80;;;;;;5077154;28;20388;-82
2021/06/30 06:31:06;;;;;;;37.70;20.50;;;18.20;76.00;;;;;;5076119;28;20055;-82
2021/06/30 06:33:32;;;;;;;40.78;21.60;;;18.20;76.00;;;;;;5077247;28;20020;-82
2021/06/30 06:35:58;;;;;;;40.92;21.08;;;18.30;76.00;;;;;;5077002;28;20497;-82
2021/06/30 06:38:24;;;;;;;36.08;21.13;;;18.30;75.90;;;;;;5075987;28;20028;-82
2021/06/30 06:40:52;;;;;;;39.47;22.02;;;18.40;75.90;;;;;;5075986;28;20365;-82
2021/06/30 06:43:18;;;;;;;38.40;24.00;;;18.50;75.80;;;;;;5077065;28;20505;-83
2021/06/30 06:45:44;;;;;;;42.80;22.75;;;18.50;76.00;;;;;;5069791;28;20492;-84
2021/06/30 06:48:10;;;;;;;33.45;19.42;;;18.60;75.60;;;;;;5073356;28;20021;-85
2021/06/30 06:50:36;;;;;;;29.42;17.55;;;18.60;75.60;;;;;;5076568;28;20123;-83
2021/06/30 06:53:02;;;;;;;31.05;18.55;;;18.60;75.30;;;;;;5076716;28;20027;-82
2021/06/30 06:55:28;;;;;;;30.05;17.92;;;18.60;75.40;;;;;;5076920;28;20048;-84
2021/06/30 06:57:54;;;;;;;26.65;16.60;;;18.70;75.40;;;;;;5075626;28;20059;-84
2021/06/30 07:00:21;;;;;;;30.27;17.15;;;18.70;75.30;;;;;;5074462;28;20024;-82
2021/06/30 07:02:47;;;;;;;31.40;16.83;;;18.80;75.40;;;;;;5074001;28;20033;-83
2021/06/30 07:05:13;;;;;;;25.02;16.52;;;18.90;75.40;;;;;;5076652;28;20036;-83
2021/06/30 07:07:43;;;;;;;24.77;15.35;;;18.90;75.00;;;;;;5076855;28;20030;-83
2021/06/30 07:10:10;;;;;;;25.65;15.10;;;18.90;75.00;;;;;;5072752;28;20025;-83
2021/06/30 07:12:36;;;;;;;26.40;15.23;;;19.00;74.70;;;;;;5076698;28;20032;-83
2021/06/30 07:15:03;;;;;;;23.80;14.07;;;19.10;74.50;;;;;;5076573;28;20071;-82
2021/06/30 07:17:29;;;;;;;25.38;14.25;;;19.10;74.60;;;;;;5076710;28;20112;-82
2021/06/30 07:19:55;;;;;;;27.42;14.57;;;19.10;74.00;;;;;;5065305;28;20549;-83
2021/06/30 07:22:21;;;;;;;23.55;14.05;;;19.10;74.00;;;;;;5076877;28;20024;-82
2021/06/30 07:24:47;;;;;;;24.60;14.43;;;19.20;73.90;;;;;;5076721;28;20070;-82
2021/06/30 07:27:13;;;;;;;24.88;14.23;;;19.20;73.90;;;;;;5076750;28;20028;-83
2021/06/30 07:29:40;;;;;;;21.88;13.88;;;19.20;73.70;;;;;;5076350;28;20480;-83
2021/06/30 07:32:07;;;;;;;21.45;12.50;;;19.20;73.80;;;;;;5075760;28;20032;-83
2021/06/30 07:34:32;;;;;;;21.88;14.63;;;19.20;73.70;;;;;;5074059;28;20438;-83
2021/06/30 07:36:58;;;;;;;22.95;12.40;;;19.20;73.60;;;;;;5076088;28;20024;-83
2021/06/30 07:39:25;;;;;;;21.85;13.73;;;19.20;73.60;;;;;;5076301;28;20016;-83
2021/06/30 07:41:52;;;;;;;21.63;12.43;;;19.30;73.60;;;;;;5076251;28;20032;-83
2021/06/30 07:44:18;;;;;;;21.95;12.68;;;19.30;73.50;;;;;;5068348;28;20094;-82
2021/06/30 07:46:44;;;;;;;17.50;11.98;;;19.40;73.40;;;;;;5075902;28;20343;-83
2021/06/30 07:49:10;;;;;;;19.38;13.20;;;19.40;73.70;;;;;;5076277;28;20025;-83
2021/06/30 07:51:36;;;;;;;18.15;12.00;;;19.50;73.40;;;;;;5078022;28;20363;-83
2021/06/30 07:54:02;;;;;;;19.88;12.07;;;19.50;73.30;;;;;;5077570;28;20154;-83
2021/06/30 07:56:34;;;;;;;20.92;12.90;;;19.50;73.60;;;;;;5068031;28;20020;-83
2021/06/30 07:59:07;;;;;;;20.58;13.98;;;19.60;73.50;;;;;;5080125;28;20074;-83
2021/06/30 08:01:34;;;;;;;20.75;12.93;;;19.70;73.80;;;;;;5075019;28;20039;-81
2021/06/30 08:04:00;;;;;;;23.35;14.52;;;19.80;74.00;;;;;;5079827;28;20020;-84
2021/06/30 08:06:26;;;;;;;25.50;16.30;;;19.80;73.10;;;;;;5080381;28;20020;-83
2021/06/30 08:08:52;;;;;;;25.77;16.08;;;19.80;73.30;;;;;;5079922;28;20023;-82
2021/06/30 08:11:19;;;;;;;29.17;16.80;;;19.90;73.40;;;;;;5079151;28;20115;-83
2021/06/30 08:13:45;;;;;;;29.33;16.80;;;19.90;73.20;;;;;;5078368;28;20020;-83
2021/06/30 08:16:11;;;;;;;45.65;28.30;;;20.00;73.20;;;;;;5079776;28;20028;-83
2021/06/30 08:18:37;;;;;;;29.17;19.05;;;20.10;72.60;;;;;;5071845;28;20037;-83
2021/06/30 08:21:03;;;;;;;27.27;16.17;;;20.10;72.80;;;;;;5071089;28;20036;-83
2021/06/30 08:23:29;;;;;;;24.02;15.20;;;20.20;72.60;;;;;;5077089;28;20146;-83
2021/06/30 08:25:55;;;;;;;24.77;14.35;;;20.20;72.50;;;;;;5079586;28;20055;-82
2021/06/30 08:28:25;;;;;;;26.83;15.38;;;20.20;72.30;;;;;;5078289;28;20028;-84
2021/06/30 08:30:51;;;;;;;31.90;17.13;;;20.10;71.90;;;;;;5079541;28;20037;-84
2021/06/30 08:33:18;;;;;;;25.10;14.65;;;20.10;71.80;;;;;;5079462;28;20092;-84
2021/06/30 08:35:44;;;;;;;23.58;14.18;;;20.10;71.90;;;;;;5079316;28;20487;-83
2021/06/30 08:38:10;;;;;;;25.20;13.80;;;20.00;71.80;;;;;;5077848;28;20072;-83
2021/06/30 08:40:39;;;;;;;24.50;14.55;;;20.00;71.40;;;;;;5078955;28;20487;-83
2021/06/30 08:43:06;;;;;;;27.60;15.77;;;20.00;71.80;;;;;;5078532;28;20035;-85
2021/06/30 08:45:32;;;;;;;23.45;13.70;;;20.00;71.70;;;;;;5079043;28;20074;-83
2021/06/30 08:47:58;;;;;;;24.20;14.93;;;20.00;72.10;;;;;;5079051;28;20036;-84
2021/06/30 08:50:24;;;;;;;27.38;14.68;;;20.00;72.10;;;;;;5078705;28;20471;-83
2021/06/30 08:52:54;;;;;;;26.38;15.85;;;20.00;71.80;;;;;;5079562;28;20039;-81
2021/06/30 08:55:21;;;;;;;27.30;16.48;;;20.00;71.90;;;;;;5080387;28;20030;-82
2021/06/30 08:57:48;;;;;;;26.90;15.63;;;20.10;71.80;;;;;;5079021;28;20104;-83
2021/06/30 09:00:15;;;;;;;26.00;15.55;;;20.10;72.30;;;;;;5078911;28;20028;-83
2021/06/30 09:02:46;;;;;;;25.30;15.50;;;20.10;72.10;;;;;;5078133;28;20126;-82
2021/06/30 09:07:50;;;;;;;26.48;16.25;;;20.30;71.50;;;;;;5078497;28;20028;-83
2021/06/30 09:10:28;;;;;;;23.77;14.73;;;20.30;72.20;;;;;;5083197;28;20036;-81
2021/06/30 09:12:54;;;;;;;24.08;14.20;;;20.30;71.50;;;;;;5078376;28;20016;-82
2021/06/30 09:15:26;;;;;;;24.95;14.82;;;20.40;72.00;;;;;;5076176;28;20445;-82
2021/06/30 09:17:52;;;;;;;24.77;14.18;;;20.40;71.30;;;;;;5076553;28;20035;-82
2021/06/30 09:20:18;;;;;;;22.85;14.05;;;20.40;71.30;;;;;;5075382;28;20462;-82
2021/06/30 09:22:47;;;;;;;24.13;15.20;;;20.50;71.50;;;;;;5078005;28;20025;-81
2021/06/30 09:25:26;;;;;;;26.92;16.17;;;20.50;71.50;;;;;;5078416;28;20028;-82
2021/06/30 09:27:52;;;;;;;23.50;15.20;;;20.50;71.10;;;;;;5065510;28;20438;-82
2021/06/30 09:30:18;;;;;;;26.90;15.13;;;20.50;71.30;;;;;;5078268;28;20032;-81
2021/06/30 09:33:04;;;;;;;28.10;15.20;;;20.40;70.90;;;;;;5078402;28;20108;-81
2021/06/30 09:35:35;;;;;;;28.98;17.23;;;20.40;71.40;;;;;;5078065;28;20391;-79
2021/06/30 09:38:28;;;;;;;30.43;18.80;;;20.40;71.90;;;;;;5078447;28;20020;-79
2021/06/30 09:40:54;;;;;;;29.70;17.85;;;20.50;71.60;;;;;;5076873;28;20507;-78
2021/06/30 09:43:27;;;;;;;27.88;17.10;;;20.50;71.60;;;;;;5077399;28;20141;-76
2021/06/30 09:45:55;;;;;;;27.17;15.52;;;20.60;72.30;;;;;;5077115;28;20127;-77
2021/06/30 09:48:31;;;;;;;27.20;15.20;;;20.70;71.50;;;;;;5076294;28;20033;-78
2021/06/30 09:50:59;;;;;;;26.27;13.93;;;20.80;71.90;;;;;;5076672;28;20538;-77
2021/06/30 09:53:40;;;;;;;24.95;15.07;;;20.90;72.10;;;;;;5077589;28;20028;-77
2021/06/30 09:56:36;;;;;;;24.35;16.20;;;21.00;71.50;;;;;;5077797;28;20048;-78
2021/06/30 09:59:14;;;;;;;26.08;15.23;;;21.10;70.70;;;;;;5077691;28;20482;-77
2021/06/30 10:01:41;;;;;;;29.30;16.90;;;21.10;70.50;;;;;;5076146;28;20025;-83
2021/06/30 10:04:09;;;;;;;26.38;15.82;;;21.00;70.00;;;;;;5077107;28;20017;-84
2021/06/30 10:06:37;;;;;;;28.05;15.38;;;21.00;70.40;;;;;;5077797;28;20017;-81
2021/06/30 10:09:05;;;;;;;25.50;15.25;;;20.90;69.70;;;;;;5077574;28;20891;-78
2021/06/30 10:11:32;;;;;;;24.17;14.25;;;20.80;69.80;;;;;;5077657;28;20439;-78
2021/06/30 10:13:59;;;;;;;24.55;14.60;;;20.70;70.20;;;;;;5077537;28;20056;-80
2021/06/30 10:16:26;;;;;;;24.00;14.90;;;20.60;69.70;;;;;;5076359;28;20049;-79
2021/06/30 10:18:54;;;;;;;25.60;15.10;;;20.50;70.00;;;;;;5075815;28;20048;-81
2021/06/30 10:21:24;;;;;;;26.70;15.18;;;20.40;70.50;;;;;;5077032;28;20028;-84
2021/06/30 10:23:51;;;;;;;25.52;13.75;;;20.40;70.60;;;;;;5077808;28;20020;-85
2021/06/30 10:26:19;;;;;;;23.42;13.63;;;20.40;70.90;;;;;;5073030;28;20507;-82
2021/06/30 10:28:52;;;;;;;23.77;13.23;;;20.40;71.30;;;;;;5076748;28;20029;-78
2021/06/30 10:31:19;;;;;;;25.45;16.13;;;20.40;71.20;;;;;;5075721;28;20037;-76
2021/06/30 10:34:00;;;;;;;38.20;23.98;;;20.40;70.70;;;;;;5071680;28;20017;-77
2021/06/30 10:36:56;;;;;;;55.38;35.33;;;20.40;70.50;;;;;;5075827;28;20017;-75
2021/06/30 10:39:38;;;;;;;27.52;17.55;;;20.40;71.10;;;;;;5060164;28;20041;-77
2021/06/30 10:42:34;;;;;;;22.67;12.57;;;20.50;71.40;;;;;;5073407;28;20511;-77
2021/06/30 10:45:13;;;;;;;19.73;10.98;;;20.60;71.60;;;;;;5068578;28;20503;-75
2021/06/30 10:47:42;;;;;;;20.65;13.57;;;20.70;71.80;;;;;;5074817;28;20093;-73
2021/06/30 10:50:17;;;;;;;24.60;14.93;;;20.80;72.00;;;;;;5076645;28;20025;-77
2021/06/30 10:53:03;;;;;;;30.55;19.20;;;20.80;70.80;;;;;;5068919;28;20158;-74
2021/06/30 10:55:32;;;;;;;28.20;17.90;;;20.90;70.50;;;;;;5063992;28;20387;-74
2021/06/30 10:58:14;;;;;;;22.25;13.88;;;20.80;70.50;;;;;;5076096;28;20111;-76
2021/06/30 11:01:07;;;;;;;23.10;13.70;;;20.80;70.70;;;;;;5071318;28;20029;-74
2021/06/30 11:04:01;;;;;;;19.40;11.80;;;20.80;71.20;;;;;;5070957;28;20039;-75
2021/06/30 11:06:30;;;;;;;21.08;13.95;;;20.80;70.90;;;;;;5071392;28;20039;-74
2021/06/30 11:08:58;;;;;;;21.45;12.45;;;20.80;71.20;;;;;;5075515;28;20052;-74
2021/06/30 11:11:32;;;;;;;21.67;12.38;;;20.70;71.00;;;;;;5075513;28;20017;-76
2021/06/30 11:14:03;;;;;;;23.35;13.77;;;20.80;71.00;;;;;;5076446;28;20050;-74
2021/06/30 11:16:38;;;;;;;27.65;16.08;;;20.80;71.00;;;;;;5075406;28;20031;-77
2021/06/30 11:19:25;;;;;;;25.92;13.35;;;20.70;70.20;;;;;;5067774;28;20037;-77
2021/06/30 11:21:56;;;;;;;23.40;13.45;;;20.80;71.10;;;;;;5059258;28;20514;-75
2021/06/30 11:24:43;;;;;;;22.42;13.30;;;20.90;71.20;;;;;;5080091;28;20044;-77
2021/06/30 11:29:58;;;;;;;67.68;46.88;;;20.90;71.20;;;;;;5079138;28;20025;-74
2021/06/30 11:32:39;;;;;;;34.33;20.00;;;21.00;71.00;;;;;;5080288;28;20020;-74
2021/06/30 11:35:16;;;;;;;28.50;15.75;;;21.00;71.40;;;;;;5078335;28;20016;-73
2021/06/30 11:37:46;;;;;;;25.13;14.57;;;21.00;70.50;;;;;;5077865;28;20107;-72
2021/06/30 11:40:28;;;;;;;25.70;14.73;;;21.00;70.70;;;;;;5073897;28;20020;-73
2021/06/30 11:42:56;;;;;;;22.92;13.65;;;21.00;70.60;;;;;;5073524;28;20094;-73
2021/06/30 11:45:33;;;;;;;25.15;15.07;;;21.10;71.10;;;;;;5069185;28;20074;-72
2021/06/30 11:48:01;;;;;;;24.10;15.02;;;21.20;71.20;;;;;;5076827;28;20034;-74
2021/06/30 11:50:30;;;;;;;26.10;14.25;;;21.20;71.40;;;;;;5070121;28;20025;-74
2021/06/30 11:52:59;;;;;;;22.58;13.90;;;21.30;71.60;;;;;;5079590;28;20391;-74
2021/06/30 11:55:36;;;;;;;23.35;14.68;;;21.30;70.40;;;;;;5079309;28;20028;-74
2021/06/30 11:58:03;;;;;;;23.42;14.02;;;21.30;69.80;;;;;;5068109;28;20096;-74
2021/06/30 12:00:31;;;;;;;28.23;14.57;;;21.20;69.70;;;;;;5068522;28;20033;-74
2021/06/30 12:02:59;;;;;;;23.27;13.43;;;21.20;69.80;;;;;;5078747;28;20042;-74
2021/06/30 12:05:27;;;;;;;25.63;14.52;;;21.20;70.30;;;;;;5078905;28;20025;-74
2021/06/30 12:07:54;;;;;;;21.88;14.05;;;21.10;69.80;;;;;;5070857;28;20055;-74
2021/06/30 12:10:25;;;;;;;21.17;12.52;;;21.10;70.30;;;;;;5079364;28;20025;-74
2021/06/30 12:12:51;;;;;;;21.42;12.88;;;21.10;70.30;;;;;;5076073;28;20032;-73
2021/06/30 12:15:19;;;;;;;19.85;12.18;;;21.10;70.30;;;;;;5068252;28;20370;-73
2021/06/30 12:17:50;;;;;;;19.15;12.20;;;21.10;70.70;;;;;;5079532;28;20524;-74
2021/06/30 12:20:17;;;;;;;21.83;13.15;;;21.10;70.20;;;;;;5078722;28;20494;-74
2021/06/30 12:22:45;;;;;;;28.75;16.80;;;21.00;69.70;;;;;;5079711;28;20166;-74
2021/06/30 12:25:24;;;;;;;32.05;18.85;;;20.90;69.90;;;;;;5078914;28;20032;-73
2021/06/30 12:27:52;;;;;;;35.92;20.58;;;20.80;70.70;;;;;;5079422;28;20082;-73
2021/06/30 12:30:25;;;;;;;35.50;19.65;;;20.60;71.60;;;;;;5079379;28;20029;-73
2021/06/30 12:33:08;;;;;;;37.72;20.80;;;20.50;72.20;;;;;;5078504;28;20051;-72
2021/06/30 12:35:37;;;;;;;35.83;20.45;;;20.40;72.20;;;;;;5079305;28;20017;-72
2021/06/30 12:38:09;;;;;;;37.22;21.10;;;20.30;72.00;;;;;;5079251;28;20031;-72
2021/06/30 12:40:36;;;;;;;33.75;19.40;;;20.30;72.20;;;;;;5074801;28;20036;-72